Frankfurt Rhein-Main (FRA/EDDF)




Flight Aircraft Arriving
CPX1132 B738
EBLG - Liège Airport
Belgium Liege, Belgium
Flight Aircraft Departing
CPX1131 B738
EBLG - Liège Airport
Belgium Liege, Belgium
Airport Information
Location: Frankfurt, DE
Coordinates: 50.0333 / 8.57046
Elevation:
Time Offset:
Local Time:
UTC Time:
Jet A Price: $/lbs

Current Weather
METAR:
Warning: file_get_contents(https://api.aviationapi.com/v1/weather/metar?apt=EDDF): failed to open stream: HTTP request failed! HTTP/1.1 500 Internal Server Error in /var/www/capitollogistics/lib/skins/urban/hub/aptview.php on line 198
TAF: TAF EDDF 231700Z 2318/2424 07004KT 9999 SCT015 BECMG 2318/2321 BKN010 TEMPO 2321/2408 3000 BR BKN008 BECMG 2405/2408 19005KT PROB30 TEMPO 2405/2409 0800 FZFG BKN002 BECMG 2412/2416 SCT025

Recent Arrivals
Date Flight Type Depart
01/14/2020 CPX1131 B738 Liège Airport (EBLG)
11/27/2019 CPX1131 B738 Liège Airport (EBLG)
10/28/2019 CPX731 B738 Liège Airport (EBLG)
09/28/2019 CPX731 B738 Liège Airport (EBLG)
09/28/2019 CPX731 B738 Liège Airport (EBLG)
Recent Departures
Date Flight Type Arrive
01/15/2020 CPX1132 B738 Liège Airport (EBLG)
11/27/2019 CPX1132 B738 Liège Airport (EBLG)
10/29/2019 CPX732 B738 Liège Airport (EBLG)
09/28/2019 CPX732 B738 Liège Airport (EBLG)
09/28/2019 CPX732 B738 Liège Airport (EBLG)